Time;durP1;ratioP1;P1;durP2;ratioP2;P2;SDS_P1;SDS_P2;PMS_P1;PMS_P2;Temp;Humidity;BMP_temperature;BMP_pressure;BME280_temperature;BME280_humidity;BME280_pressure;Samples;Min_cycle;Max_cycle;Signal;HPM_P1;HPM_P2
2023/11/30 00:00:53;;;;;;;20.63;16.08;;;0.10;99.90;;;;;;5008059;28;20085;-92
2023/11/30 00:03:19;;;;;;;20.08;13.70;;;0.10;99.90;;;;;;5039210;28;20021;-93
2023/11/30 00:05:45;;;;;;;20.00;14.88;;;0.00;99.90;;;;;;5004902;28;20037;-93
2023/11/30 00:08:10;;;;;;;20.98;13.60;;;0.10;99.90;;;;;;5002289;28;20018;-92
2023/11/30 00:10:44;;;;;;;19.40;14.15;;;0.10;99.90;;;;;;5020449;28;20018;-94
2023/11/30 00:13:09;;;;;;;19.13;13.15;;;0.00;99.90;;;;;;5003243;28;20022;-93
2023/11/30 00:15:35;;;;;;;20.40;14.73;;;0.00;99.90;;;;;;5022620;28;20065;-93
2023/11/30 00:18:01;;;;;;;19.83;15.05;;;0.00;99.90;;;;;;5024610;28;20544;-93
2023/11/30 00:20:26;;;;;;;20.88;14.60;;;0.00;99.90;;;;;;5024168;28;20030;-92
2023/11/30 00:22:52;;;;;;;20.38;14.57;;;-0.10;99.90;;;;;;5005978;28;20026;-92
2023/11/30 00:25:18;;;;;;;24.02;15.95;;;-0.10;99.90;;;;;;5005331;28;20089;-92
2023/11/30 00:27:46;;;;;;;18.48;13.38;;;-0.10;99.90;;;;;;5024000;28;20022;-92
2023/11/30 00:30:12;;;;;;;19.95;14.70;;;-0.10;99.90;;;;;;5023693;28;20034;-93
2023/11/30 00:32:38;;;;;;;22.65;15.57;;;-0.10;99.90;;;;;;5005921;28;20033;-92
2023/11/30 00:35:07;;;;;;;22.30;16.00;;;-0.20;99.90;;;;;;5023752;28;20098;-93
2023/11/30 00:37:32;;;;;;;21.95;15.20;;;-0.20;99.90;;;;;;5037062;28;20033;-92
2023/11/30 00:39:58;;;;;;;21.90;13.98;;;-0.20;99.90;;;;;;5026060;28;20025;-92
2023/11/30 00:42:25;;;;;;;17.83;13.73;;;-0.10;99.90;;;;;;5042576;28;20494;-92
2023/11/30 00:44:51;;;;;;;17.80;14.43;;;-0.10;99.90;;;;;;5043066;28;20071;-91
2023/11/30 00:47:17;;;;;;;19.42;14.45;;;-0.10;99.90;;;;;;5045857;28;20037;-93
2023/11/30 00:49:42;;;;;;;18.52;13.48;;;-0.20;99.90;;;;;;5040902;28;20025;-93
2023/11/30 00:52:08;;;;;;;20.20;13.43;;;-0.20;99.90;;;;;;5021557;28;20100;-92
2023/11/30 00:54:34;;;;;;;19.98;13.90;;;-0.20;99.90;;;;;;5013633;28;20514;-92
2023/11/30 00:57:00;;;;;;;14.98;11.77;;;-0.20;99.90;;;;;;5032764;28;20025;-92
2023/11/30 00:59:25;;;;;;;16.83;12.55;;;-0.20;99.90;;;;;;5041748;28;20022;-93
2023/11/30 01:01:51;;;;;;;20.45;12.73;;;-0.20;99.90;;;;;;5041672;28;20097;-92
2023/11/30 01:04:17;;;;;;;17.70;12.35;;;-0.10;99.90;;;;;;5024233;28;20029;-92
2023/11/30 01:06:42;;;;;;;20.35;12.68;;;-0.10;99.90;;;;;;5025144;28;20087;-92
2023/11/30 01:09:08;;;;;;;14.68;11.80;;;-0.10;99.90;;;;;;5023857;28;20033;-93
2023/11/30 01:11:41;;;;;;;14.77;11.55;;;-0.10;99.90;;;;;;5039876;28;20671;-92
2023/11/30 01:14:06;;;;;;;16.45;13.15;;;-0.10;99.90;;;;;;5041942;28;20033;-94
2023/11/30 01:16:32;;;;;;;15.55;11.73;;;-0.10;99.90;;;;;;5024100;28;20021;-93
2023/11/30 01:18:58;;;;;;;17.50;12.88;;;-0.20;99.90;;;;;;5040042;28;20072;-91
2023/11/30 01:21:24;;;;;;;18.45;12.40;;;-0.30;99.90;;;;;;5033289;28;20018;-93
2023/11/30 01:23:49;;;;;;;17.58;12.55;;;-0.30;99.90;;;;;;5002812;28;20107;-93
2023/11/30 01:26:15;;;;;;;19.00;13.30;;;-0.30;99.90;;;;;;5020540;28;20037;-93
2023/11/30 01:28:41;;;;;;;17.33;13.32;;;-0.40;99.90;;;;;;5003651;28;20030;-91
2023/11/30 01:31:07;;;;;;;22.23;14.43;;;-0.40;99.90;;;;;;5034427;28;20033;-92
2023/11/30 01:33:32;;;;;;;16.30;12.20;;;-0.40;99.90;;;;;;5041600;28;20033;-93
2023/11/30 01:35:58;;;;;;;17.88;13.95;;;-0.40;99.90;;;;;;5041112;28;20055;-92
2023/11/30 01:38:24;;;;;;;14.98;11.45;;;-0.40;99.90;;;;;;5040744;28;20052;-91
2023/11/30 01:40:49;;;;;;;21.77;11.88;;;-0.40;99.90;;;;;;5040089;28;20021;-92
2023/11/30 01:43:17;;;;;;;18.88;12.23;;;-0.40;99.90;;;;;;5040135;28;20079;-93
2023/11/30 01:45:43;;;;;;;17.20;13.18;;;-0.40;99.90;;;;;;5004508;28;20488;-92
2023/11/30 01:48:10;;;;;;;17.27;13.07;;;-0.50;99.90;;;;;;5021520;28;20029;-91
2023/11/30 01:50:36;;;;;;;18.70;12.25;;;-0.50;99.90;;;;;;5036075;28;20042;-91
2023/11/30 01:53:02;;;;;;;17.25;12.13;;;-0.50;99.90;;;;;;5033948;28;20025;-93
2023/11/30 01:55:28;;;;;;;19.42;13.70;;;-0.50;99.90;;;;;;5023631;28;20057;-93
2023/11/30 01:58:00;;;;;;;23.88;14.45;;;-0.40;99.90;;;;;;5041008;28;20028;-93
2023/11/30 02:00:28;;;;;;;21.77;11.93;;;-0.50;99.90;;;;;;5041062;28;20022;-92
2023/11/30 02:02:54;;;;;;;;;;;-0.50;99.90;;;;;;5024178;28;20014;-93
2023/11/30 02:05:20;;;;;;;16.92;10.63;;;-0.50;99.90;;;;;;5020919;28;20385;-92
2023/11/30 02:07:45;;;;;;;19.02;12.40;;;-0.50;99.90;;;;;;5019496;28;20026;-92
2023/11/30 02:10:11;;;;;;;17.65;11.18;;;-0.60;99.90;;;;;;5018911;28;20030;-93
2023/11/30 02:12:37;;;;;;;18.10;13.48;;;-0.60;99.90;;;;;;5019274;28;20026;-91
2023/11/30 02:15:03;;;;;;;17.30;11.18;;;-0.60;99.90;;;;;;5019741;28;20033;-93
2023/11/30 02:17:28;;;;;;;15.07;10.95;;;-0.60;99.90;;;;;;5020137;28;20025;-92
2023/11/30 02:19:54;;;;;;;18.05;11.25;;;-0.60;99.90;;;;;;5017742;28;20030;-93
2023/11/30 02:22:22;;;;;;;15.27;11.10;;;-0.60;99.90;;;;;;5002865;28;20557;-92
2023/11/30 02:24:48;;;;;;;16.65;11.57;;;-0.70;99.90;;;;;;5006619;28;20022;-92
2023/11/30 02:27:22;;;;;;;15.05;11.32;;;-0.70;99.90;;;;;;5003938;28;20032;-92
2023/11/30 02:29:48;;;;;;;18.23;11.50;;;-0.70;99.90;;;;;;5001652;28;20041;-93
2023/11/30 02:32:14;;;;;;;21.17;13.75;;;-0.70;99.90;;;;;;5022665;28;20085;-93
2023/11/30 02:34:42;;;;;;;15.30;11.52;;;-0.80;99.90;;;;;;5041954;28;20471;-92
2023/11/30 02:37:15;;;;;;;19.50;12.95;;;-0.80;99.90;;;;;;5041501;28;20025;-93
2023/11/30 02:39:41;;;;;;;19.88;12.52;;;-0.80;99.90;;;;;;5031839;28;20026;-92
2023/11/30 02:42:12;;;;;;;16.15;12.20;;;-0.80;99.90;;;;;;5025570;28;20104;-91
2023/11/30 02:44:40;;;;;;;18.55;11.75;;;-0.80;99.90;;;;;;5040722;28;20060;-92
2023/11/30 02:47:11;;;;;;;18.88;12.40;;;-0.80;99.90;;;;;;5037840;28;20042;-92
2023/11/30 02:49:42;;;;;;;16.48;11.88;;;-0.80;99.90;;;;;;5024273;28;20142;-91
2023/11/30 02:52:18;;;;;;;16.42;12.80;;;-0.80;99.90;;;;;;5002991;28;20030;-93
2023/11/30 02:54:50;;;;;;;15.65;12.00;;;-0.80;99.90;;;;;;5021862;28;20029;-91
2023/11/30 02:57:15;;;;;;;18.88;11.73;;;-0.80;99.90;;;;;;5021974;28;20060;-93
2023/11/30 02:59:56;;;;;;;15.82;12.68;;;-0.80;99.90;;;;;;5040479;28;20017;-92
2023/11/30 03:02:33;;;;;;;18.38;12.82;;;-0.80;99.90;;;;;;5022585;28;20708;-92
2023/11/30 03:05:07;;;;;;;17.30;11.23;;;-0.80;99.90;;;;;;5021566;28;20027;-92
2023/11/30 03:07:36;;;;;;;15.68;10.90;;;-0.80;99.90;;;;;;5017978;28;20037;-91
2023/11/30 03:10:02;;;;;;;17.10;11.18;;;-0.80;99.90;;;;;;5020805;28;20029;-92
2023/11/30 03:12:33;;;;;;;19.58;12.65;;;-0.80;99.90;;;;;;5022006;28;20093;-93
2023/11/30 03:15:02;;;;;;;16.42;11.63;;;-0.80;99.90;;;;;;5022262;28;20021;-93
2023/11/30 03:17:28;;;;;;;18.38;11.35;;;-0.80;99.90;;;;;;5039661;28;20026;-93
2023/11/30 03:19:54;;;;;;;15.27;11.88;;;-0.80;99.90;;;;;;5010994;28;20501;-90
2023/11/30 03:22:19;;;;;;;16.63;10.98;;;-0.80;99.90;;;;;;5020538;28;20022;-92
2023/11/30 03:24:54;;;;;;;19.00;12.15;;;-0.80;99.90;;;;;;5023512;28;20022;-93
2023/11/30 03:27:23;;;;;;;18.50;13.60;;;-0.90;99.90;;;;;;5040246;28;20033;-92
2023/11/30 03:29:59;;;;;;;;;;;;;;;;;;;;;
2023/11/30 03:32:25;;;;;;;13.90;11.45;;;-0.80;99.90;;;;;;5039216;28;20117;-93
2023/11/30 03:34:51;;;;;;;13.55;11.90;;;-0.80;99.90;;;;;;5040001;28;20484;-92
2023/11/30 03:37:16;;;;;;;18.60;12.68;;;-0.70;99.90;;;;;;5023169;28;20044;-92
2023/11/30 03:39:50;;;;;;;14.85;11.18;;;-0.80;99.90;;;;;;5032234;28;20021;-94
2023/11/30 03:42:25;;;;;;;14.70;11.90;;;-0.70;99.90;;;;;;5016212;28;20029;-92
2023/11/30 03:44:51;;;;;;;16.33;12.10;;;-0.80;99.90;;;;;;5012029;28;20025;-93
2023/11/30 03:47:16;;;;;;;15.82;11.32;;;-0.70;99.90;;;;;;5040226;28;20039;-93
2023/11/30 03:49:48;;;;;;;17.92;11.10;;;-0.70;99.90;;;;;;5039602;28;20036;-93
2023/11/30 03:52:23;;;;;;;16.33;12.25;;;-0.80;99.90;;;;;;5021885;28;20025;-92
2023/11/30 03:54:48;;;;;;;18.08;12.05;;;-0.70;99.90;;;;;;5039414;28;20025;-93
2023/11/30 03:57:24;;;;;;;18.33;12.30;;;-0.80;99.90;;;;;;5038103;28;20024;-93
2023/11/30 04:00:01;;;;;;;16.63;10.82;;;-0.80;99.90;;;;;;5038863;28;20040;-91
2023/11/30 04:02:30;;;;;;;17.13;11.73;;;-0.90;99.90;;;;;;5041751;28;20025;-93
2023/11/30 04:05:08;;;;;;;17.75;11.90;;;-0.90;99.90;;;;;;5019383;28;20080;-92
2023/11/30 04:07:34;;;;;;;16.63;12.00;;;-0.90;99.90;;;;;;5018535;28;20099;-91
2023/11/30 04:10:00;;;;;;;19.10;11.77;;;-0.90;99.90;;;;;;5020734;28;20483;-92
2023/11/30 04:12:28;;;;;;;16.73;11.77;;;-1.00;99.90;;;;;;5019179;28;20045;-91
2023/11/30 04:14:54;;;;;;;14.52;10.98;;;-1.00;99.90;;;;;;5039146;28;20036;-92
2023/11/30 04:17:23;;;;;;;18.35;12.73;;;-1.00;99.90;;;;;;5041252;28;20021;-92
2023/11/30 04:20:04;;;;;;;15.45;12.05;;;-1.00;99.90;;;;;;5021902;28;20042;-93
2023/11/30 04:22:33;;;;;;;15.02;11.73;;;-1.00;99.90;;;;;;5020150;28;20022;-93
2023/11/30 04:24:59;;;;;;;13.93;11.20;;;-1.00;99.90;;;;;;5003966;28;20038;-92
2023/11/30 04:27:27;;;;;;;17.17;10.25;;;-0.90;99.90;;;;;;5003894;28;20041;-93
2023/11/30 04:29:53;;;;;;;;;;;-0.90;99.90;;;;;;5007539;28;20088;-92
2023/11/30 04:32:18;;;;;;;12.88;9.43;;;-0.90;99.90;;;;;;5020520;28;19905;-93
2023/11/30 04:34:44;;;;;;;13.18;10.13;;;-0.90;99.90;;;;;;5004051;28;20033;-92
2023/11/30 04:37:13;;;;;;;18.70;11.40;;;-0.80;99.90;;;;;;5016065;28;20026;-91
2023/11/30 04:39:45;;;;;;;16.40;11.48;;;-0.90;99.90;;;;;;5038115;28;20029;-92
2023/11/30 04:42:13;;;;;;;14.25;12.68;;;-0.90;99.90;;;;;;5031877;28;20013;-92
2023/11/30 04:44:39;;;;;;;16.73;12.32;;;-0.90;99.90;;;;;;5036816;28;20033;-92
2023/11/30 04:47:05;;;;;;;17.08;12.38;;;-1.00;99.90;;;;;;5035915;28;20025;-89
2023/11/30 04:49:31;;;;;;;18.48;12.55;;;-1.00;99.90;;;;;;5033229;28;20045;-91
2023/11/30 04:51:57;;;;;;;17.00;11.98;;;-1.00;99.90;;;;;;5037397;28;20034;-92
2023/11/30 04:54:22;;;;;;;19.20;12.18;;;-0.90;99.90;;;;;;5038718;28;20022;-90
2023/11/30 04:56:49;;;;;;;16.00;12.13;;;-0.90;99.90;;;;;;5037564;28;20172;-91
2023/11/30 04:59:14;;;;;;;17.05;12.13;;;-0.90;99.90;;;;;;5020745;28;20018;-92
2023/11/30 05:01:40;;;;;;;15.38;11.23;;;-0.80;99.90;;;;;;5021821;28;20051;-90
2023/11/30 05:04:06;;;;;;;16.65;11.75;;;-0.90;99.90;;;;;;5031811;28;20017;-91
2023/11/30 05:06:32;;;;;;;17.92;12.80;;;-0.90;99.90;;;;;;5037373;28;20101;-91
2023/11/30 05:08:58;;;;;;;16.95;12.35;;;-0.90;99.90;;;;;;5026650;28;20499;-91
2023/11/30 05:11:24;;;;;;;18.35;13.90;;;-0.90;99.90;;;;;;5035079;28;20428;-90
2023/11/30 05:13:50;;;;;;;19.35;14.90;;;-0.80;99.90;;;;;;5021386;28;20038;-90
2023/11/30 05:16:15;;;;;;;16.15;11.63;;;-0.90;99.90;;;;;;5026662;28;20018;-90
2023/11/30 05:18:41;;;;;;;15.00;10.80;;;-0.90;99.90;;;;;;5032910;28;20156;-92
2023/11/30 05:21:07;;;;;;;16.77;12.13;;;-0.90;99.90;;;;;;5012105;28;20021;-92
2023/11/30 05:23:33;;;;;;;15.35;10.30;;;-0.90;99.90;;;;;;5034678;28;20560;-91
2023/11/30 05:25:59;;;;;;;15.88;12.32;;;-0.90;99.90;;;;;;5031505;28;20109;-91
2023/11/30 05:28:25;;;;;;;12.63;9.98;;;-0.80;99.90;;;;;;5032543;28;20040;-91
2023/11/30 05:30:50;;;;;;;15.05;10.48;;;-0.90;99.90;;;;;;5030059;28;20041;-91
2023/11/30 05:33:16;;;;;;;13.07;10.65;;;-0.90;99.90;;;;;;5030892;28;20066;-91
2023/11/30 05:35:42;;;;;;;13.43;12.07;;;-0.90;99.90;;;;;;5025673;28;20095;-90
2023/11/30 05:38:08;;;;;;;14.52;10.70;;;-0.90;99.90;;;;;;5034857;28;20685;-89
2023/11/30 05:40:35;;;;;;;12.75;10.38;;;-0.90;99.90;;;;;;5022726;28;20026;-90
2023/11/30 05:43:00;;;;;;;12.82;9.60;;;-1.00;99.90;;;;;;5022291;28;20026;-90
2023/11/30 05:45:27;;;;;;;16.75;11.50;;;-1.00;99.90;;;;;;5035410;28;20034;-90
2023/11/30 05:47:53;;;;;;;16.55;11.27;;;-1.00;99.90;;;;;;5040199;28;20033;-90
2023/11/30 05:50:19;;;;;;;14.60;9.20;;;-1.00;99.90;;;;;;5040682;28;20044;-89
2023/11/30 05:52:45;;;;;;;14.80;10.68;;;-1.00;99.90;;;;;;5038920;28;20029;-92
2023/11/30 05:55:11;;;;;;;14.68;9.88;;;-1.10;99.90;;;;;;5039841;28;20573;-90
2023/11/30 05:57:37;;;;;;;14.95;11.63;;;-1.10;99.90;;;;;;5038503;28;20658;-90
2023/11/30 06:00:04;;;;;;;14.05;11.18;;;-1.20;99.90;;;;;;5038204;28;20032;-91
2023/11/30 06:02:31;;;;;;;13.85;10.50;;;-1.20;99.90;;;;;;5038287;28;20051;-92
2023/11/30 06:04:58;;;;;;;17.17;11.82;;;-1.20;99.90;;;;;;5031086;28;20056;-91
2023/11/30 06:07:23;;;;;;;15.00;10.73;;;-1.20;99.90;;;;;;5039301;28;20029;-89
2023/11/30 06:09:50;;;;;;;13.18;10.68;;;-1.10;99.90;;;;;;5024174;28;20069;-90
2023/11/30 06:12:16;;;;;;;17.88;11.32;;;-1.10;99.90;;;;;;5001978;28;20527;-90
2023/11/30 06:14:44;;;;;;;13.73;9.75;;;-1.10;99.90;;;;;;5021646;28;20044;-91
2023/11/30 06:17:11;;;;;;;;;;;-1.10;99.90;;;;;;5021040;28;20449;-90
2023/11/30 06:19:37;;;;;;;10.95;9.48;;;-1.10;99.90;;;;;;5001913;28;19914;-90
2023/11/30 06:22:02;;;;;;;12.27;8.50;;;-1.00;99.90;;;;;;5020330;28;20021;-90
2023/11/30 06:24:29;;;;;;;10.93;8.90;;;-1.00;99.90;;;;;;5002169;28;20036;-90
2023/11/30 06:26:55;;;;;;;11.80;8.65;;;-1.00;99.90;;;;;;5003881;28;20045;-92
2023/11/30 06:29:21;;;;;;;14.65;10.32;;;-1.00;99.90;;;;;;5018848;28;20040;-91
2023/11/30 06:31:47;;;;;;;15.27;10.00;;;-1.00;99.90;;;;;;5019503;28;20038;-90
2023/11/30 06:34:12;;;;;;;16.20;13.30;;;-1.00;99.90;;;;;;5027670;28;20029;-89
2023/11/30 06:36:38;;;;;;;15.27;10.68;;;-1.00;99.90;;;;;;5033921;28;20060;-91
2023/11/30 06:39:04;;;;;;;15.70;12.35;;;-1.00;99.90;;;;;;5021729;28;20446;-90
2023/11/30 06:44:36;;;;;;;17.08;9.85;;;-1.00;99.90;;;;;;4979830;28;20033;-92
2023/11/30 06:47:28;;;;;;;14.80;10.43;;;-1.00;99.90;;;;;;5025258;28;20114;-92
2023/11/30 06:50:26;;;;;;;12.85;9.50;;;-1.00;99.90;;;;;;5024387;28;20084;-93
2023/11/30 06:52:52;;;;;;;10.82;8.25;;;-1.00;99.90;;;;;;5033266;28;20467;-94
2023/11/30 06:55:22;;;;;;;16.15;10.38;;;-1.00;99.90;;;;;;5016033;28;20038;-92
2023/11/30 06:57:51;;;;;;;14.93;10.50;;;-1.00;99.90;;;;;;5024413;28;20037;-93
2023/11/30 07:00:18;;;;;;;12.38;9.48;;;-1.00;99.90;;;;;;5036141;28;20160;-93
2023/11/30 07:02:47;;;;;;;12.75;9.55;;;-1.00;99.90;;;;;;5029480;28;20558;-92
2023/11/30 07:05:28;;;;;;;11.93;9.38;;;-0.90;99.90;;;;;;5021416;28;20049;-93
2023/11/30 07:08:20;;;;;;;11.13;8.48;;;-0.90;99.90;;;;;;5041538;28;20560;-91
2023/11/30 07:10:53;;;;;;;10.95;9.45;;;-0.90;99.90;;;;;;5029437;28;20093;-92
2023/11/30 07:13:19;;;;;;;12.35;8.65;;;-0.90;99.90;;;;;;5026646;28;20057;-94
2023/11/30 07:15:44;;;;;;;12.50;9.63;;;-0.90;99.90;;;;;;5038993;28;20026;-93
2023/11/30 07:18:13;;;;;;;11.35;9.13;;;-0.90;99.90;;;;;;5018363;28;20463;-95
2023/11/30 07:20:54;;;;;;;10.68;8.82;;;-0.90;99.90;;;;;;5016929;28;20024;-93
2023/11/30 07:23:29;;;;;;;12.23;9.88;;;-0.90;99.90;;;;;;5004970;28;20026;-92
2023/11/30 07:26:13;;;;;;;13.32;8.98;;;-0.90;99.90;;;;;;5036879;28;20041;-93
2023/11/30 07:28:54;;;;;;;13.75;8.93;;;-0.90;99.90;;;;;;5015038;28;20128;-93
2023/11/30 07:31:26;;;;;;;11.18;8.73;;;-0.90;99.90;;;;;;5025769;28;20443;-94
2023/11/30 07:33:52;;;;;;;10.27;8.27;;;-0.80;99.90;;;;;;5023349;28;20030;-94
2023/11/30 07:36:20;;;;;;;12.18;8.85;;;-0.80;99.90;;;;;;5041653;28;20047;-92
2023/11/30 07:38:52;;;;;;;14.18;9.90;;;-0.80;99.90;;;;;;5012607;28;20089;-92
2023/11/30 07:41:20;;;;;;;14.00;9.52;;;-0.80;99.90;;;;;;5029012;28;20072;-93
2023/11/30 07:43:57;;;;;;;12.82;10.27;;;-0.80;99.90;;;;;;5021932;28;20024;-94
2023/11/30 07:46:26;;;;;;;11.60;8.77;;;-0.80;99.90;;;;;;5040683;28;20025;-91
2023/11/30 07:48:55;;;;;;;11.35;9.50;;;-0.80;99.90;;;;;;5020234;28;20237;-92
2023/11/30 07:51:25;;;;;;;13.90;10.20;;;-0.70;99.90;;;;;;5016382;28;20121;-92
2023/11/30 07:53:51;;;;;;;13.38;8.25;;;-0.80;99.90;;;;;;5018495;28;20122;-93
2023/11/30 07:56:33;;;;;;;13.25;10.63;;;-0.80;99.90;;;;;;5030002;28;20037;-93
2023/11/30 07:59:03;;;;;;;13.00;10.32;;;-0.70;99.90;;;;;;5001875;28;20065;-93
2023/11/30 08:01:34;;;;;;;18.02;11.70;;;-0.70;99.90;;;;;;5021357;28;20018;-92
2023/11/30 08:04:00;;;;;;;16.02;10.10;;;-0.60;99.90;;;;;;5028960;28;20018;-92
2023/11/30 08:06:25;;;;;;;13.02;8.80;;;-0.60;99.90;;;;;;5030080;28;20029;-91
2023/11/30 08:08:51;;;;;;;13.32;9.05;;;-0.60;99.90;;;;;;5031831;28;20303;-92
2023/11/30 08:11:23;;;;;;;13.38;9.07;;;-0.60;99.90;;;;;;5016171;28;20057;-93
2023/11/30 08:13:52;;;;;;;11.43;7.50;;;-0.60;99.90;;;;;;5003401;28;20029;-94
2023/11/30 08:16:17;;;;;;;12.82;9.10;;;-0.60;99.90;;;;;;5020905;28;20029;-93
2023/11/30 08:18:46;;;;;;;11.77;10.02;;;-0.60;99.90;;;;;;5039077;28;20464;-94
2023/11/30 08:21:33;;;;;;;10.85;8.75;;;-0.50;99.90;;;;;;5023105;28;20089;-93
2023/11/30 08:24:01;;;;;;;12.95;9.77;;;-0.50;99.90;;;;;;5043427;28;20494;-94
2023/11/30 08:26:27;;;;;;;13.10;9.02;;;-0.40;99.90;;;;;;5017753;28;20017;-92
2023/11/30 08:28:53;;;;;;;13.00;9.27;;;-0.40;99.90;;;;;;5019559;28;20060;-94
2023/11/30 08:31:18;;;;;;;13.65;10.02;;;-0.40;99.90;;;;;;5039442;28;20041;-92
2023/11/30 08:33:47;;;;;;;16.08;9.50;;;-0.40;99.90;;;;;;5040903;28;20034;-93
2023/11/30 08:36:18;;;;;;;14.05;9.77;;;-0.30;99.90;;;;;;5029813;28;20021;-93
2023/11/30 08:38:46;;;;;;;10.50;9.32;;;-0.30;99.90;;;;;;5046110;28;20056;-93
2023/11/30 08:41:13;;;;;;;11.77;9.07;;;-0.30;99.90;;;;;;5043767;28;20032;-93
2023/11/30 08:43:41;;;;;;;13.45;9.02;;;-0.20;99.90;;;;;;5024061;28;20029;-93
2023/11/30 08:46:10;;;;;;;11.80;10.52;;;-0.20;99.90;;;;;;5024788;28;20048;-93
2023/11/30 08:48:39;;;;;;;15.10;11.05;;;-0.10;99.90;;;;;;5026547;28;20036;-94
2023/11/30 08:51:08;;;;;;;13.93;10.77;;;-0.20;99.90;;;;;;5028225;28;20143;-93
2023/11/30 08:53:43;;;;;;;17.85;11.30;;;-0.10;99.90;;;;;;5046946;28;20021;-94
2023/11/30 08:56:11;;;;;;;;;;;-0.10;99.90;;;;;;5028379;28;20045;-93
2023/11/30 08:58:56;;;;;;;19.20;13.45;;;0.00;99.90;;;;;;5027815;28;19913;-94
2023/11/30 09:01:22;;;;;;;21.08;14.05;;;0.00;99.90;;;;;;5047331;28;20083;-93
2023/11/30 09:04:24;;;;;;;22.63;14.15;;;0.10;99.90;;;;;;5036467;28;20038;-92
2023/11/30 09:07:01;;;;;;;18.65;13.25;;;0.10;99.90;;;;;;5014496;28;20030;-93
2023/11/30 09:09:36;;;;;;;20.13;13.27;;;0.20;99.90;;;;;;5028819;28;20135;-94
2023/11/30 09:12:18;;;;;;;22.50;15.38;;;0.20;99.90;;;;;;5027542;28;20022;-94
2023/11/30 09:14:54;;;;;;;20.38;14.48;;;0.20;99.90;;;;;;5034345;28;20041;-92
2023/11/30 09:17:19;;;;;;;21.92;15.23;;;0.20;99.90;;;;;;5024484;28;20037;-92
2023/11/30 09:19:46;;;;;;;24.23;15.77;;;0.30;99.90;;;;;;5047459;28;20452;-93
2023/11/30 09:22:14;;;;;;;21.77;15.65;;;0.40;99.90;;;;;;5016932;28;20029;-93
2023/11/30 09:24:47;;;;;;;27.25;16.65;;;0.50;99.90;;;;;;5020564;28;20021;-92
2023/11/30 09:27:13;;;;;;;22.67;17.05;;;0.50;99.90;;;;;;5017935;28;20034;-92
2023/11/30 09:29:50;;;;;;;25.92;18.20;;;0.60;99.90;;;;;;5027263;28;20034;-93
2023/11/30 09:32:16;;;;;;;26.38;17.88;;;0.60;99.90;;;;;;5010784;28;20061;-93
2023/11/30 09:34:48;;;;;;;29.10;17.60;;;0.60;99.90;;;;;;5045752;28;20033;-93
2023/11/30 09:37:17;;;;;;;25.27;16.02;;;0.70;99.90;;;;;;5027974;28;20498;-92
2023/11/30 09:39:44;;;;;;;22.55;16.40;;;0.70;99.90;;;;;;5020113;28;20022;-93
2023/11/30 09:42:18;;;;;;;21.40;15.25;;;0.80;99.90;;;;;;5047885;28;20022;-92
2023/11/30 09:44:44;;;;;;;21.92;15.98;;;0.80;99.90;;;;;;5007555;28;20543;-93
2023/11/30 09:47:13;;;;;;;21.05;14.48;;;0.70;99.90;;;;;;5021013;28;20065;-92
2023/11/30 09:49:39;;;;;;;24.15;15.00;;;0.70;99.90;;;;;;5022326;28;20030;-92
2023/11/30 09:52:07;;;;;;;21.85;15.07;;;0.70;99.90;;;;;;5023266;28;20526;-92
2023/11/30 09:54:37;;;;;;;19.90;14.20;;;0.80;99.90;;;;;;5005889;28;20026;-94
2023/11/30 09:57:04;;;;;;;24.27;15.80;;;0.80;99.90;;;;;;5033639;28;20021;-92
2023/11/30 09:59:30;;;;;;;25.80;17.48;;;0.90;99.90;;;;;;5038200;28;20018;-92
2023/11/30 10:01:59;;;;;;;23.20;16.52;;;0.90;99.90;;;;;;5018971;28;20052;-93
2023/11/30 10:04:27;;;;;;;24.88;16.23;;;0.90;99.90;;;;;;5024470;28;20026;-92
2023/11/30 10:07:02;;;;;;;20.55;14.98;;;0.90;99.90;;;;;;5042971;28;20021;-91
2023/11/30 10:09:30;;;;;;;;;;;1.00;99.90;;;;;;5042002;28;20408;-92
2023/11/30 10:12:05;;;;;;;18.33;13.07;;;1.00;99.90;;;;;;5025509;28;19905;-93
2023/11/30 10:14:31;;;;;;;18.65;12.57;;;1.00;99.90;;;;;;5044808;28;20025;-91
2023/11/30 10:16:59;;;;;;;17.10;13.10;;;1.10;99.90;;;;;;5020147;28;20037;-91
2023/11/30 10:19:28;;;;;;;19.23;13.68;;;1.10;99.90;;;;;;5024066;28;20078;-91
2023/11/30 10:21:57;;;;;;;21.75;13.55;;;1.20;99.90;;;;;;5025045;28;20022;-93
2023/11/30 10:24:23;;;;;;;18.00;13.55;;;1.20;99.90;;;;;;5025869;28;20038;-91
2023/11/30 10:26:53;;;;;;;16.30;13.10;;;1.20;99.90;;;;;;5026181;28;20055;-92
2023/11/30 10:29:23;;;;;;;20.42;14.27;;;1.10;99.90;;;;;;5044152;28;20030;-91
2023/11/30 10:31:53;;;;;;;19.08;13.85;;;1.10;99.90;;;;;;5045369;28;20022;-92
2023/11/30 10:34:27;;;;;;;23.02;15.65;;;1.00;99.90;;;;;;5044555;28;20028;-93
2023/11/30 10:36:55;;;;;;;21.48;15.35;;;0.90;99.90;;;;;;5043436;28;20026;-92
2023/11/30 10:39:23;;;;;;;24.60;15.02;;;1.00;99.90;;;;;;5041147;28;20104;-92
2023/11/30 10:41:54;;;;;;;22.38;15.93;;;0.90;99.90;;;;;;5041670;28;20017;-91
2023/11/30 10:44:26;;;;;;;18.17;13.75;;;1.00;99.90;;;;;;5008969;28;20022;-92
2023/11/30 10:46:56;;;;;;;23.80;16.90;;;0.90;99.90;;;;;;5021962;28;20048;-92
2023/11/30 10:49:23;;;;;;;20.73;13.52;;;1.00;99.90;;;;;;5029126;28;20060;-91
2023/11/30 10:51:58;;;;;;;21.10;14.20;;;1.10;99.90;;;;;;5043681;28;20472;-91
2023/11/30 10:54:32;;;;;;;;;;;1.20;99.90;;;;;;5043433;28;20033;-92
2023/11/30 10:57:02;;;;;;;19.25;12.77;;;1.20;99.90;;;;;;5024003;28;19917;-92
2023/11/30 10:59:29;;;;;;;21.67;14.05;;;1.30;99.90;;;;;;5042366;28;20021;-92
2023/11/30 11:01:56;;;;;;;20.90;14.77;;;1.30;99.90;;;;;;5023212;28;20040;-92
2023/11/30 11:04:27;;;;;;;20.45;14.48;;;1.30;99.90;;;;;;5042006;28;20053;-91
2023/11/30 11:07:22;;;;;;;21.77;14.05;;;1.30;99.90;;;;;;5041243;28;20033;-92
2023/11/30 11:09:53;;;;;;;19.85;14.20;;;1.30;99.90;;;;;;5032031;28;20045;-91
2023/11/30 11:12:24;;;;;;;19.40;14.75;;;1.40;99.90;;;;;;5034097;28;20044;-92
2023/11/30 11:15:03;;;;;;;21.70;14.20;;;1.50;99.90;;;;;;5030601;28;20702;-92
2023/11/30 11:17:29;;;;;;;19.13;14.27;;;1.50;99.90;;;;;;5035828;28;20061;-92
2023/11/30 11:20:03;;;;;;;22.63;15.55;;;1.60;99.90;;;;;;5038737;28;20080;-92
2023/11/30 11:22:35;;;;;;;21.33;14.02;;;1.60;99.90;;;;;;5031922;28;20026;-93
2023/11/30 11:25:00;;;;;;;21.20;15.23;;;1.60;99.90;;;;;;5029411;28;20077;-92
2023/11/30 11:27:33;;;;;;;21.02;14.60;;;1.60;99.90;;;;;;5028118;28;20064;-92
2023/11/30 11:30:02;;;;;;;21.60;16.15;;;1.70;99.90;;;;;;5030438;28;20038;-92
2023/11/30 11:32:31;;;;;;;22.67;13.88;;;1.70;99.90;;;;;;5026093;28;20056;-92
2023/11/30 11:34:59;;;;;;;19.27;14.73;;;1.60;99.90;;;;;;5012300;28;20030;-94
2023/11/30 11:37:28;;;;;;;18.25;13.50;;;1.70;99.90;;;;;;5009035;28;20113;-92
2023/11/30 11:39:55;;;;;;;;;;;1.70;99.90;;;;;;5029053;28;20114;-92
2023/11/30 11:42:21;;;;;;;;;;;1.80;99.90;;;;;;5040959;28;19984;-91
2023/11/30 11:44:49;;;;;;;18.70;12.80;;;1.80;99.90;;;;;;5025405;28;19910;-92
2023/11/30 11:47:21;;;;;;;20.85;13.65;;;1.80;99.90;;;;;;5021943;28;20380;-91
2023/11/30 11:49:49;;;;;;;17.63;12.38;;;1.90;99.90;;;;;;5020425;28;20094;-92
2023/11/30 11:52:25;;;;;;;17.67;11.15;;;2.00;99.90;;;;;;5003791;28;20033;-93
2023/11/30 11:55:13;;;;;;;18.63;11.40;;;2.10;99.90;;;;;;5023441;28;20282;-93
2023/11/30 11:57:41;;;;;;;20.23;14.73;;;2.10;99.90;;;;;;5021719;28;20030;-92
2023/11/30 12:00:20;;;;;;;15.75;12.93;;;2.00;99.90;;;;;;5021811;28;20014;-92
2023/11/30 12:02:48;;;;;;;16.90;13.00;;;2.10;99.90;;;;;;5021398;28;20025;-91
2023/11/30 12:05:26;;;;;;;14.88;12.15;;;2.10;99.90;;;;;;5021901;28;20076;-93
2023/11/30 12:07:57;;;;;;;17.20;12.13;;;2.10;99.90;;;;;;5007752;28;20026;-92
2023/11/30 12:10:30;;;;;;;16.13;13.05;;;2.20;99.90;;;;;;5011512;28;20025;-93
2023/11/30 12:13:03;;;;;;;15.13;11.38;;;2.10;99.90;;;;;;5035183;28;20026;-91
2023/11/30 12:15:29;;;;;;;17.63;11.95;;;2.00;99.90;;;;;;5024233;28;20169;-92
2023/11/30 12:18:08;;;;;;;20.42;13.95;;;2.10;99.90;;;;;;5043417;28;20029;-92
2023/11/30 12:20:36;;;;;;;16.75;11.88;;;2.00;99.90;;;;;;5043608;28;20049;-90
2023/11/30 12:23:05;;;;;;;17.27;13.15;;;2.10;99.90;;;;;;5043771;28;20026;-91
2023/11/30 12:25:30;;;;;;;;;;;2.00;99.90;;;;;;5026392;28;20029;-91
2023/11/30 12:27:56;;;;;;;17.63;11.20;;;1.90;99.90;;;;;;5023574;28;19905;-92
2023/11/30 12:30:23;;;;;;;16.88;13.82;;;1.90;99.90;;;;;;5022629;28;20083;-92
2023/11/30 12:32:49;;;;;;;15.57;12.18;;;2.00;99.90;;;;;;5041821;28;20025;-93
2023/11/30 12:35:18;;;;;;;16.48;12.25;;;2.00;99.90;;;;;;5042343;28;20022;-93
2023/11/30 12:37:44;;;;;;;18.05;13.45;;;2.00;99.90;;;;;;5042118;28;20099;-92
2023/11/30 12:40:11;;;;;;;16.83;12.20;;;2.00;99.90;;;;;;5040283;28;20021;-93
2023/11/30 12:42:41;;;;;;;18.38;14.48;;;1.90;99.90;;;;;;5020715;28;20006;-91
2023/11/30 12:45:10;;;;;;;17.70;13.20;;;1.90;99.90;;;;;;5025596;28;20046;-91
2023/11/30 12:47:38;;;;;;;19.00;14.02;;;1.90;99.90;;;;;;5017941;28;20042;-92